createdAt,value
2023-03-11T00:00:33.607Z,981.66
2023-03-11T00:01:33.610Z,981.66
2023-03-11T00:02:33.500Z,981.68
2023-03-11T00:03:33.606Z,981.69
2023-03-11T00:04:33.527Z,981.76
2023-03-11T00:05:33.714Z,981.83
2023-03-11T00:06:33.514Z,981.66
2023-03-11T00:07:33.513Z,981.82
2023-03-11T00:08:33.450Z,981.80
2023-03-11T00:09:33.528Z,981.86
2023-03-11T00:10:33.488Z,981.78
2023-03-11T00:11:33.607Z,981.85
2023-03-11T00:12:33.513Z,982.00
2023-03-11T00:13:33.591Z,981.93
2023-03-11T00:14:33.567Z,982.06
2023-03-11T00:15:33.509Z,982.07
2023-03-11T00:16:33.529Z,982.01
2023-03-11T00:17:33.521Z,982.10
2023-03-11T00:18:33.506Z,982.25
2023-03-11T00:19:33.465Z,982.12
2023-03-11T00:20:33.556Z,982.16
2023-03-11T00:21:33.383Z,982.06
2023-03-11T00:22:33.493Z,982.18
2023-03-11T00:23:33.461Z,982.18
2023-03-11T00:24:33.453Z,982.12
2023-03-11T00:25:33.496Z,982.14
2023-03-11T00:26:33.361Z,982.30
2023-03-11T00:27:33.364Z,982.24
2023-03-11T00:28:34.445Z,982.22
2023-03-11T00:29:34.314Z,982.21
2023-03-11T00:30:33.345Z,982.30
2023-03-11T00:31:33.467Z,982.29
2023-03-11T00:32:33.407Z,982.24
2023-03-11T00:33:33.383Z,982.29
2023-03-11T00:34:33.371Z,982.23
2023-03-11T00:35:33.466Z,982.38
2023-03-11T00:36:34.443Z,982.36
2023-03-11T00:37:33.371Z,982.41
2023-03-11T00:38:33.361Z,982.45
2023-03-11T00:39:33.371Z,982.44
2023-03-11T00:40:33.254Z,982.65
2023-03-11T00:41:33.332Z,982.35
2023-03-11T00:42:33.784Z,982.61
2023-03-11T00:43:33.334Z,982.53
2023-03-11T00:44:33.250Z,982.51
2023-03-11T00:45:34.308Z,982.63
2023-03-11T00:46:33.254Z,982.50
2023-03-11T00:47:33.350Z,982.54
2023-03-11T00:48:33.154Z,982.54
2023-03-11T00:49:33.185Z,982.50
2023-03-11T00:50:33.188Z,982.56
2023-03-11T00:51:34.251Z,982.55
2023-03-11T00:52:34.207Z,982.64
2023-03-11T00:53:33.151Z,982.62
2023-03-11T00:54:33.249Z,982.70
2023-03-11T00:55:33.229Z,982.64
2023-03-11T00:56:33.250Z,982.57
2023-03-11T00:57:33.280Z,982.69
2023-03-11T00:58:33.260Z,982.73
2023-03-11T00:59:33.255Z,982.77
2023-03-11T01:00:33.198Z,982.81
2023-03-11T01:01:33.266Z,982.78
2023-03-11T01:02:33.184Z,982.77
2023-03-11T01:03:33.249Z,982.68
2023-03-11T01:04:33.182Z,982.69
2023-03-11T01:05:33.194Z,982.60
2023-03-11T01:06:44.900Z,982.65
2023-03-11T01:07:35.253Z,982.64
2023-03-11T01:08:33.143Z,982.73
2023-03-11T01:09:33.086Z,982.77
2023-03-11T01:10:33.061Z,982.71
2023-03-11T01:11:33.050Z,982.77
2023-03-11T01:12:33.030Z,982.84
2023-03-11T01:13:33.045Z,982.84
2023-03-11T01:14:33.158Z,982.88
2023-03-11T01:15:33.191Z,982.81
2023-03-11T01:16:33.094Z,982.89
2023-03-11T01:17:33.127Z,982.86
2023-03-11T01:18:33.075Z,982.90
2023-03-11T01:19:33.091Z,982.89
2023-03-11T01:20:33.150Z,982.88
2023-03-11T01:21:32.977Z,982.86
2023-03-11T01:22:33.114Z,982.90
2023-03-11T01:23:33.039Z,982.90
2023-03-11T01:24:33.149Z,982.91
2023-03-11T01:25:33.067Z,982.87
2023-03-11T01:26:33.034Z,983.00
2023-03-11T01:27:33.045Z,982.99
2023-03-11T01:28:33.038Z,982.91
2023-03-11T01:29:33.005Z,982.96
2023-03-11T01:30:33.002Z,983.07
2023-03-11T01:31:33.081Z,983.05
2023-03-11T01:32:32.958Z,983.06
2023-03-11T01:33:32.925Z,983.04
2023-03-11T01:34:32.874Z,983.13
2023-03-11T01:35:32.896Z,983.18
2023-03-11T01:36:32.979Z,983.17
2023-03-11T01:37:32.991Z,983.04
2023-03-11T01:38:32.882Z,983.11
2023-03-11T01:39:32.933Z,983.32
2023-03-11T01:40:32.989Z,983.16
2023-03-11T01:41:32.925Z,983.31
2023-03-11T01:42:32.926Z,983.14
2023-03-11T01:43:32.953Z,983.18
2023-03-11T01:44:32.869Z,983.19
2023-03-11T01:45:32.952Z,983.25
2023-03-11T01:46:32.939Z,983.28
2023-03-11T01:47:33.252Z,983.35
2023-03-11T01:48:32.896Z,983.24
2023-03-11T01:49:32.968Z,983.22
2023-03-11T01:50:32.872Z,983.30
2023-03-11T01:51:32.894Z,983.35
2023-03-11T01:52:32.829Z,983.27
2023-03-11T01:53:32.882Z,983.29
2023-03-11T01:54:32.829Z,983.27
2023-03-11T01:55:48.990Z,983.25
2023-03-11T01:56:32.786Z,983.23
2023-03-11T01:57:32.752Z,983.43
2023-03-11T01:58:32.763Z,983.31
2023-03-11T01:59:32.711Z,983.29
2023-03-11T02:00:32.715Z,983.45
2023-03-11T02:01:32.789Z,983.38
2023-03-11T02:02:32.746Z,983.22
2023-03-11T02:03:32.716Z,983.50
2023-03-11T02:04:32.708Z,983.27
2023-03-11T02:05:32.667Z,983.32
2023-03-11T02:06:32.679Z,983.41
2023-03-11T02:07:32.772Z,983.50
2023-03-11T02:08:32.764Z,983.44
2023-03-11T02:09:32.752Z,983.47
2023-03-11T02:10:32.732Z,983.47
2023-03-11T02:11:32.813Z,983.56
2023-03-11T02:12:32.767Z,983.55
2023-03-11T02:13:32.702Z,983.47
2023-03-11T02:14:32.694Z,983.49
2023-03-11T02:15:32.745Z,983.55
2023-03-11T02:16:33.768Z,983.49
2023-03-11T02:17:32.700Z,983.73
2023-03-11T02:18:32.652Z,983.54
2023-03-11T02:19:32.668Z,983.62
2023-03-11T02:20:32.711Z,983.69
2023-03-11T02:21:32.563Z,983.61
2023-03-11T02:22:32.656Z,983.63
2023-03-11T02:23:32.651Z,983.72
2023-03-11T02:24:32.651Z,983.69
2023-03-11T02:25:32.633Z,983.77
2023-03-11T02:26:32.697Z,983.60
2023-03-11T02:27:32.556Z,983.77
2023-03-11T02:28:32.534Z,983.87
2023-03-11T02:29:32.518Z,983.72
2023-03-11T02:30:32.509Z,983.78
2023-03-11T02:31:32.536Z,983.83
2023-03-11T02:32:32.528Z,983.82
2023-03-11T02:33:32.498Z,983.84
2023-03-11T02:34:32.485Z,983.84
2023-03-11T02:35:32.502Z,984.03
2023-03-11T02:36:32.454Z,983.91
2023-03-11T02:37:32.515Z,983.92
2023-03-11T02:38:32.471Z,983.92
2023-03-11T02:39:32.541Z,983.92
2023-03-11T02:40:32.543Z,983.95
2023-03-11T02:41:32.537Z,984.01
2023-03-11T02:42:32.605Z,984.02
2023-03-11T02:43:32.516Z,984.03
2023-03-11T02:44:32.560Z,984.10
2023-03-11T02:45:32.534Z,984.09
2023-03-11T02:46:32.523Z,984.12
2023-03-11T02:47:32.479Z,984.14
2023-03-11T02:48:32.727Z,984.22
2023-03-11T02:49:32.443Z,984.19
2023-03-11T02:50:32.464Z,984.15
2023-03-11T02:51:32.479Z,984.15
2023-03-11T02:52:32.446Z,984.25
2023-03-11T02:53:32.431Z,984.24
2023-03-11T02:54:32.393Z,984.29
2023-03-11T02:55:32.351Z,984.27
2023-03-11T02:56:32.443Z,984.45
2023-03-11T02:57:32.356Z,984.26
2023-03-11T02:58:32.302Z,984.35
2023-03-11T02:59:32.392Z,984.28
2023-03-11T03:00:32.333Z,984.25
2023-03-11T03:01:33.304Z,984.30
2023-03-11T03:02:32.261Z,984.30
2023-03-11T03:03:32.413Z,984.25
2023-03-11T03:04:32.471Z,984.31
2023-03-11T03:05:32.375Z,984.36
2023-03-11T03:06:32.357Z,984.31
2023-03-11T03:07:32.301Z,984.41
2023-03-11T03:08:32.373Z,984.46
2023-03-11T03:09:32.350Z,984.24
2023-03-11T03:10:32.366Z,984.39
2023-03-11T03:11:32.321Z,984.40
2023-03-11T03:12:32.329Z,984.43
2023-03-11T03:13:32.301Z,984.42
2023-03-11T03:14:32.307Z,984.33
2023-03-11T03:15:32.357Z,984.41
2023-03-11T03:16:32.312Z,984.37
2023-03-11T03:17:32.305Z,984.38
2023-03-11T03:18:32.188Z,984.42
2023-03-11T03:19:32.672Z,984.45
2023-03-11T03:20:32.206Z,984.47
2023-03-11T03:21:32.203Z,984.46
2023-03-11T03:22:32.157Z,984.55
2023-03-11T03:23:32.270Z,984.56
2023-03-11T03:24:32.229Z,984.60
2023-03-11T03:25:32.331Z,984.60
2023-03-11T03:26:32.289Z,984.58
2023-03-11T03:27:32.178Z,984.62
2023-03-11T03:28:32.217Z,984.61
2023-03-11T03:29:32.206Z,984.58
2023-03-11T03:30:32.176Z,984.57
2023-03-11T03:31:32.197Z,984.60
2023-03-11T03:32:32.232Z,984.70
2023-03-11T03:33:32.172Z,984.62
2023-03-11T03:34:32.172Z,984.73
2023-03-11T03:35:32.196Z,984.75
2023-03-11T03:36:32.158Z,984.77
2023-03-11T03:37:32.243Z,984.85
2023-03-11T03:38:32.144Z,984.84
2023-03-11T03:39:32.094Z,984.83
2023-03-11T03:40:32.075Z,984.85
2023-03-11T03:41:32.045Z,984.83
2023-03-11T03:42:32.036Z,984.87
2023-03-11T03:43:32.037Z,984.93
2023-03-11T03:44:32.113Z,984.92
2023-03-11T03:45:32.066Z,984.92
2023-03-11T03:46:31.994Z,984.94
2023-03-11T03:47:32.092Z,985.02
2023-03-11T03:48:32.404Z,984.98
2023-03-11T03:49:32.129Z,985.00
2023-03-11T03:50:32.122Z,985.02
2023-03-11T03:51:32.072Z,984.98
2023-03-11T03:52:32.085Z,984.94
2023-03-11T03:53:32.045Z,985.02
2023-03-11T03:54:32.131Z,984.90
2023-03-11T03:55:32.048Z,985.05
2023-03-11T03:56:32.049Z,985.00
2023-03-11T03:57:32.042Z,985.02
2023-03-11T03:58:32.025Z,985.02
2023-03-11T03:59:32.066Z,985.06
2023-03-11T04:00:32.827Z,985.04
2023-03-11T04:01:32.015Z,985.12
2023-03-11T04:02:32.053Z,985.11
2023-03-11T04:03:31.955Z,985.12
2023-03-11T04:04:31.903Z,985.19
2023-03-11T04:05:31.949Z,985.17
2023-03-11T04:06:31.830Z,985.19
2023-03-11T04:07:31.883Z,985.20
2023-03-11T04:08:31.857Z,985.19
2023-03-11T04:09:31.913Z,985.15
2023-03-11T04:10:31.935Z,985.19
2023-03-11T04:11:31.958Z,985.14
2023-03-11T04:12:31.892Z,985.19
2023-03-11T04:13:31.973Z,985.26
2023-03-11T04:14:31.881Z,985.19
2023-03-11T04:15:31.873Z,985.28
2023-03-11T04:16:32.044Z,985.29
2023-03-11T04:17:31.883Z,985.24
2023-03-11T04:18:31.894Z,985.31
2023-03-11T04:19:31.907Z,985.31
2023-03-11T04:20:31.875Z,985.30
2023-03-11T04:21:31.814Z,985.29
2023-03-11T04:22:31.901Z,985.29
2023-03-11T04:23:31.839Z,985.36
2023-03-11T04:24:31.789Z,985.35
2023-03-11T04:25:32.348Z,985.34
2023-03-11T04:26:31.878Z,985.29
2023-03-11T04:27:31.826Z,985.36
2023-03-11T04:28:31.826Z,985.36
2023-03-11T04:29:31.838Z,985.29
2023-03-11T04:30:31.846Z,985.33
2023-03-11T04:31:31.814Z,985.36
2023-03-11T04:32:31.846Z,985.36
2023-03-11T04:33:31.699Z,985.46
2023-03-11T04:34:31.686Z,985.41
2023-03-11T04:35:31.809Z,985.43
2023-03-11T04:36:31.703Z,985.46
2023-03-11T04:37:31.680Z,985.40
2023-03-11T04:38:31.683Z,985.42
2023-03-11T04:39:31.729Z,985.57
2023-03-11T04:40:31.747Z,985.56
2023-03-11T04:41:31.749Z,985.51
2023-03-11T04:42:31.770Z,985.52
2023-03-11T04:43:31.718Z,985.53
2023-03-11T04:44:31.685Z,985.49
2023-03-11T04:45:31.729Z,985.57
2023-03-11T04:46:31.720Z,985.58
2023-03-11T04:47:31.715Z,985.59
2023-03-11T04:48:31.725Z,985.67
2023-03-11T04:49:31.653Z,985.61
2023-03-11T04:50:31.738Z,985.62
2023-03-11T04:51:31.671Z,985.60
2023-03-11T04:52:31.651Z,985.66
2023-03-11T04:53:32.061Z,985.65
2023-03-11T04:54:31.623Z,985.67
2023-03-11T04:55:31.532Z,985.70
2023-03-11T04:56:31.573Z,985.71
2023-03-11T04:57:31.523Z,985.68
2023-03-11T04:58:31.546Z,985.70
2023-03-11T04:59:31.590Z,985.71
2023-03-11T05:00:31.502Z,985.73
2023-03-11T05:01:31.554Z,985.81
2023-03-11T05:02:31.526Z,985.80
2023-03-11T05:03:31.597Z,985.78
2023-03-11T05:04:31.571Z,985.77
2023-03-11T05:05:31.502Z,985.78
2023-03-11T05:06:31.582Z,985.76
2023-03-11T05:07:31.577Z,985.81
2023-03-11T05:08:31.517Z,985.82
2023-03-11T05:09:31.600Z,985.81
2023-03-11T05:10:32.172Z,985.82
2023-03-11T05:11:32.522Z,985.81
2023-03-11T05:12:31.533Z,985.88
2023-03-11T05:13:31.519Z,985.86
2023-03-11T05:14:31.515Z,985.91
2023-03-11T05:15:31.558Z,985.89
2023-03-11T05:16:31.544Z,985.90
2023-03-11T05:17:31.500Z,985.85
2023-03-11T05:18:31.473Z,985.84
2023-03-11T05:19:31.518Z,985.92
2023-03-11T05:20:31.544Z,985.81
2023-03-11T05:21:31.413Z,985.92
2023-03-11T05:22:31.383Z,985.94
2023-03-11T05:23:31.343Z,985.90
2023-03-11T05:24:31.503Z,985.96
2023-03-11T05:25:31.363Z,986.04
2023-03-11T05:26:31.456Z,985.98
2023-03-11T05:27:31.360Z,985.99
2023-03-11T05:28:31.492Z,986.05
2023-03-11T05:29:31.386Z,986.03
2023-03-11T05:30:31.395Z,985.99
2023-03-11T05:31:31.571Z,986.05
2023-03-11T05:32:31.485Z,986.11
2023-03-11T05:33:31.422Z,986.16
2023-03-11T05:34:31.383Z,986.17
2023-03-11T05:35:31.401Z,986.15
2023-03-11T05:36:31.424Z,986.12
2023-03-11T05:37:31.441Z,986.15
2023-03-11T05:38:31.365Z,986.16
2023-03-11T05:39:31.354Z,986.12
2023-03-11T05:40:31.364Z,986.16
2023-03-11T05:41:31.362Z,986.12
2023-03-11T05:42:31.387Z,986.22
2023-03-11T05:43:31.233Z,986.14
2023-03-11T05:44:31.249Z,986.18
2023-03-11T05:45:31.355Z,986.22
2023-03-11T05:46:31.277Z,986.28
2023-03-11T05:47:31.212Z,986.28
2023-03-11T05:48:31.342Z,986.23
2023-03-11T05:49:31.348Z,986.31
2023-03-11T05:50:31.276Z,986.27
2023-03-11T05:51:32.266Z,986.33
2023-03-11T05:52:31.259Z,986.39
2023-03-11T05:53:31.445Z,986.33
2023-03-11T05:54:31.266Z,986.34
2023-03-11T05:55:31.235Z,986.38
2023-03-11T05:56:31.263Z,986.40
2023-03-11T05:57:31.241Z,986.42
2023-03-11T05:58:31.273Z,986.46
2023-03-11T05:59:31.256Z,986.39
2023-03-11T06:00:31.196Z,986.42
2023-03-11T06:01:31.208Z,986.38
2023-03-11T06:02:31.102Z,986.44
2023-03-11T06:03:31.106Z,986.35
2023-03-11T06:04:31.293Z,986.42
2023-03-11T06:05:31.085Z,986.42
2023-03-11T06:06:31.073Z,986.39
2023-03-11T06:07:31.100Z,986.51
2023-03-11T06:08:31.097Z,986.59
2023-03-11T06:09:38.252Z,986.59
2023-03-11T06:10:31.087Z,986.67
2023-03-11T06:11:31.162Z,986.59
2023-03-11T06:12:31.181Z,986.69
2023-03-11T06:13:31.124Z,986.70
2023-03-11T06:14:31.168Z,986.69
2023-03-11T06:15:52.183Z,986.74
2023-03-11T06:16:31.092Z,986.75
2023-03-11T06:17:31.133Z,986.79
2023-03-11T06:18:31.117Z,986.71
2023-03-11T06:19:31.078Z,986.79
2023-03-11T06:21:17.398Z,986.82
2023-03-11T06:21:31.006Z,986.81
2023-03-11T06:22:31.006Z,986.85
2023-03-11T06:23:31.087Z,986.91
2023-03-11T06:24:31.047Z,986.86
2023-03-11T06:25:31.006Z,986.81
2023-03-11T06:26:30.993Z,986.89
2023-03-11T06:27:30.952Z,986.89
2023-03-11T06:28:51.544Z,986.92
2023-03-11T06:29:30.915Z,986.97
2023-03-11T06:30:31.000Z,986.92
2023-03-11T06:31:30.999Z,986.95
2023-03-11T06:32:30.947Z,986.95
2023-03-11T06:33:30.990Z,986.99
2023-03-11T06:34:31.011Z,986.95
2023-03-11T06:35:30.941Z,987.05
2023-03-11T06:36:31.996Z,987.03
2023-03-11T06:37:31.024Z,986.99
2023-03-11T06:38:30.902Z,986.90
2023-03-11T06:39:31.045Z,987.00
2023-03-11T06:40:30.958Z,987.07
2023-03-11T06:41:30.856Z,987.01
2023-03-11T06:42:30.970Z,986.99
2023-03-11T06:43:30.921Z,987.03
2023-03-11T06:44:30.817Z,987.08
2023-03-11T06:45:30.949Z,987.11
2023-03-11T06:46:30.914Z,987.13
2023-03-11T06:47:30.898Z,987.12
2023-03-11T06:48:30.946Z,987.14
2023-03-11T06:49:30.917Z,987.18
2023-03-11T06:50:30.879Z,987.08
2023-03-11T06:51:30.845Z,987.11
2023-03-11T06:52:30.873Z,987.25
2023-03-11T06:53:30.926Z,987.23
2023-03-11T06:54:30.875Z,987.19
2023-03-11T06:55:30.855Z,987.26
2023-03-11T06:56:30.762Z,987.19
2023-03-11T06:57:30.809Z,987.27
2023-03-11T06:58:31.023Z,987.24
2023-03-11T06:59:30.715Z,987.36
2023-03-11T07:00:30.824Z,987.25
2023-03-11T07:01:30.825Z,987.34
2023-03-11T07:02:30.713Z,987.29
2023-03-11T07:03:30.659Z,987.31
2023-03-11T07:04:30.758Z,987.33
2023-03-11T07:05:30.690Z,987.32
2023-03-11T07:06:30.763Z,987.43
2023-03-11T07:07:30.786Z,987.29
2023-03-11T07:08:30.648Z,987.36
2023-03-11T07:09:30.852Z,987.40
2023-03-11T07:10:30.822Z,987.41
2023-03-11T07:11:30.657Z,987.44
2023-03-11T07:12:30.763Z,987.38
2023-03-11T07:13:30.717Z,987.43
2023-03-11T07:14:31.696Z,987.45
2023-03-11T07:15:30.714Z,987.38
2023-03-11T07:16:30.767Z,987.48
2023-03-11T07:17:30.624Z,987.46
2023-03-11T07:18:30.700Z,987.32
2023-03-11T07:19:30.700Z,987.35
2023-03-11T07:20:30.787Z,987.42
2023-03-11T07:21:30.584Z,987.33
2023-03-11T07:22:30.675Z,987.41
2023-03-11T07:23:30.758Z,987.38
2023-03-11T07:24:30.684Z,987.41
2023-03-11T07:25:30.750Z,987.49
2023-03-11T07:26:30.645Z,987.51
2023-03-11T07:27:30.598Z,987.56
2023-03-11T07:28:30.555Z,987.59
2023-03-11T07:29:30.535Z,987.56
2023-03-11T07:30:30.573Z,987.52
2023-03-11T07:31:30.657Z,987.59
2023-03-11T07:32:30.658Z,987.55
2023-03-11T07:33:32.604Z,987.62
2023-03-11T07:34:30.493Z,987.56
2023-03-11T07:35:30.557Z,987.61
2023-03-11T07:36:30.605Z,987.65
2023-03-11T07:37:30.580Z,987.68
2023-03-11T07:38:30.506Z,987.66
2023-03-11T07:39:30.553Z,987.59
2023-03-11T07:40:30.646Z,987.63
2023-03-11T07:41:30.444Z,987.64
2023-03-11T07:42:30.765Z,987.74
2023-03-11T07:43:30.498Z,987.75
2023-03-11T07:44:31.682Z,987.77
2023-03-11T07:45:30.714Z,987.78
2023-03-11T07:46:31.057Z,987.84
2023-03-11T07:47:30.580Z,987.86
2023-03-11T07:48:30.532Z,987.85
2023-03-11T07:49:30.794Z,987.85
2023-03-11T07:50:30.474Z,987.85
2023-03-11T07:51:30.398Z,987.97
2023-03-11T07:52:30.561Z,987.99
2023-03-11T07:53:30.474Z,987.99
2023-03-11T07:54:30.577Z,987.95
2023-03-11T07:55:30.356Z,988.02
2023-03-11T07:56:30.420Z,988.06
2023-03-11T07:57:30.521Z,988.04
2023-03-11T07:58:31.029Z,988.02
2023-03-11T07:59:30.635Z,988.02
2023-03-11T08:00:30.362Z,988.01
2023-03-11T08:01:30.532Z,987.97
2023-03-11T08:02:30.761Z,988.04
2023-03-11T08:03:30.471Z,988.08
2023-03-11T08:04:30.494Z,988.05
2023-03-11T08:05:31.418Z,987.93
2023-03-11T08:06:30.364Z,987.99
2023-03-11T08:07:30.485Z,988.02
2023-03-11T08:08:30.365Z,988.04
2023-03-11T08:09:30.332Z,988.06
2023-03-11T08:10:30.365Z,988.05
2023-03-11T08:11:30.398Z,988.15
2023-03-11T08:12:30.313Z,988.11
2023-03-11T08:13:30.345Z,988.19
2023-03-11T08:14:30.438Z,988.15
2023-03-11T08:15:30.609Z,988.29
2023-03-11T08:16:30.934Z,988.14
2023-03-11T08:17:30.750Z,988.22
2023-03-11T08:18:30.340Z,988.33
2023-03-11T08:19:30.457Z,988.19
2023-03-11T08:20:30.487Z,988.27
2023-03-11T08:21:30.894Z,988.18
2023-03-11T08:22:30.853Z,988.22
2023-03-11T08:23:30.280Z,988.28
2023-03-11T08:24:30.276Z,988.32
2023-03-11T08:25:30.286Z,988.32
2023-03-11T08:26:30.226Z,988.38
2023-03-11T08:27:30.286Z,988.32
2023-03-11T08:28:30.333Z,988.35
2023-03-11T08:29:30.430Z,988.28
2023-03-11T08:30:30.297Z,988.40
2023-03-11T08:32:01.876Z,988.42
2023-03-11T08:32:30.183Z,988.45
2023-03-11T08:33:30.275Z,988.46
2023-03-11T08:34:30.350Z,988.61
2023-03-11T08:51:06.647Z,988.65
2023-03-11T08:52:07.908Z,988.63
2023-03-11T08:53:07.939Z,988.73
2023-03-11T09:02:55.093Z,988.77
2023-03-11T09:03:56.214Z,988.87
2023-03-11T09:04:56.160Z,988.81
2023-03-11T09:05:55.969Z,988.88
2023-03-11T09:12:14.616Z,988.90
2023-03-11T09:13:04.504Z,988.91
2023-03-11T09:22:41.849Z,989.02
2023-03-11T09:23:19.021Z,989.08
2023-03-11T09:24:21.100Z,989.02
2023-03-11T09:25:18.758Z,989.05
2023-03-11T09:26:18.737Z,989.01
2023-03-11T09:27:18.778Z,988.99
2023-03-11T09:28:18.726Z,989.07
2023-03-11T10:04:20.575Z,989.30
2023-03-11T10:05:21.977Z,989.31
2023-03-11T10:08:07.987Z,989.27
2023-03-11T10:21:23.828Z,989.44
2023-03-11T10:22:23.364Z,989.37
2023-03-11T10:23:23.783Z,989.43
2023-03-11T10:24:22.966Z,989.40
2023-03-11T10:25:23.332Z,989.42
2023-03-11T10:26:23.098Z,989.41
2023-03-11T10:27:22.991Z,989.39
2023-03-11T10:28:22.982Z,989.43
2023-03-11T10:29:22.985Z,989.46
2023-03-11T10:30:23.000Z,989.43
2023-03-11T10:31:23.125Z,989.45
2023-03-11T10:32:23.121Z,989.48
2023-03-11T10:33:23.042Z,989.46
2023-03-11T10:34:22.988Z,989.46
2023-03-11T10:35:23.080Z,989.37
2023-03-11T10:36:22.875Z,989.40
2023-03-11T10:37:23.137Z,989.46
2023-03-11T10:38:22.983Z,989.50
2023-03-11T10:39:22.826Z,989.49
2023-03-11T10:40:23.983Z,989.42
2023-03-11T10:41:23.822Z,989.48
2023-03-11T10:42:22.807Z,989.41
2023-03-11T10:43:22.992Z,989.41
2023-03-11T10:44:22.969Z,989.43
2023-03-11T10:45:23.886Z,989.41
2023-03-11T10:46:22.890Z,989.37
2023-03-11T10:47:23.023Z,989.35
2023-03-11T10:48:23.033Z,989.41
2023-03-11T10:49:22.865Z,989.43
2023-03-11T10:50:22.826Z,989.39
2023-03-11T10:51:23.012Z,989.43
2023-03-11T10:52:22.831Z,989.43
2023-03-11T10:53:22.765Z,989.35
2023-03-11T10:54:22.740Z,989.34
2023-03-11T10:55:22.764Z,989.41
2023-03-11T10:56:22.773Z,989.41
2023-03-11T10:57:22.708Z,989.41
2023-03-11T10:58:22.697Z,989.34
2023-03-11T10:59:22.712Z,989.39
2023-03-11T11:00:22.782Z,989.46
2023-03-11T11:01:22.832Z,989.48
2023-03-11T11:02:22.840Z,989.47
2023-03-11T11:03:22.772Z,989.47
2023-03-11T11:04:22.827Z,989.44
2023-03-11T11:05:23.299Z,989.43
2023-03-11T11:06:22.900Z,989.44
2023-03-11T11:07:22.767Z,989.39
2023-03-11T11:08:22.681Z,989.48
2023-03-11T11:09:24.060Z,989.43
2023-03-11T11:10:22.723Z,989.44
2023-03-11T11:11:22.743Z,989.32
2023-03-11T11:12:22.675Z,989.42
2023-03-11T11:13:22.590Z,989.42
2023-03-11T11:14:22.605Z,989.51
2023-03-11T11:15:22.569Z,989.48
2023-03-11T11:16:22.734Z,989.44
2023-03-11T11:17:22.576Z,989.48
2023-03-11T11:18:22.535Z,989.49
2023-03-11T11:19:22.541Z,989.54
2023-03-11T11:20:22.605Z,989.53
2023-03-11T11:21:22.692Z,989.57
2023-03-11T11:22:22.595Z,989.58
2023-03-11T11:23:23.607Z,989.58
2023-03-11T11:24:22.573Z,989.61
2023-03-11T11:25:22.592Z,989.62
2023-03-11T11:26:22.560Z,989.59
2023-03-11T11:27:22.645Z,989.53
2023-03-11T11:28:22.753Z,989.51
2023-03-11T11:29:22.698Z,989.49
2023-03-11T11:30:22.560Z,989.57
2023-03-11T11:31:22.631Z,989.50
2023-03-11T11:32:22.628Z,989.60
2023-03-11T11:33:22.616Z,989.52
2023-03-11T11:34:23.174Z,989.58
2023-03-11T11:35:23.535Z,989.48
2023-03-11T11:36:22.405Z,989.56
2023-03-11T11:37:22.461Z,989.53
2023-03-11T11:38:22.664Z,989.56
2023-03-11T11:39:22.464Z,989.60
2023-03-11T11:40:22.465Z,989.56
2023-03-11T11:41:22.381Z,989.66
2023-03-11T11:42:22.515Z,989.64
2023-03-11T11:43:22.468Z,989.64
2023-03-11T11:44:22.518Z,989.65
2023-03-11T11:45:22.491Z,989.66
2023-03-11T11:46:22.503Z,989.63
2023-03-11T11:47:22.527Z,989.66
2023-03-11T11:48:22.452Z,989.65
2023-03-11T11:49:22.501Z,989.63
2023-03-11T11:50:22.464Z,989.59
2023-03-11T11:51:22.507Z,989.54
2023-03-11T11:52:22.511Z,989.51
2023-03-11T11:53:22.559Z,989.53
2023-03-11T11:54:22.412Z,989.57
2023-03-11T11:55:22.413Z,989.58
2023-03-11T11:56:22.396Z,989.56
2023-03-11T11:57:22.362Z,989.57
2023-03-11T11:58:22.430Z,989.49
2023-03-11T11:59:22.363Z,989.47
2023-03-11T12:00:22.636Z,989.50
2023-03-11T12:01:22.287Z,989.48
2023-03-11T12:02:22.661Z,989.47
2023-03-11T12:03:22.462Z,989.55
2023-03-11T12:04:22.370Z,989.48
2023-03-11T12:05:22.461Z,989.52
2023-03-11T12:06:22.697Z,989.55
2023-03-11T12:07:22.421Z,989.52
2023-03-11T12:08:22.591Z,989.55
2023-03-11T12:09:22.406Z,989.59
2023-03-11T12:10:24.029Z,989.53
2023-03-11T12:11:23.580Z,989.50
2023-03-11T12:12:22.623Z,989.55
2023-03-11T12:13:22.422Z,989.53
2023-03-11T12:14:22.614Z,989.59
2023-03-11T12:15:22.793Z,989.49
2023-03-11T12:16:22.153Z,989.53
2023-03-11T12:17:22.284Z,989.51
2023-03-11T12:18:22.366Z,989.58
2023-03-11T12:19:22.344Z,989.52
2023-03-11T12:20:22.283Z,989.49
2023-03-11T12:21:22.112Z,989.51
2023-03-11T12:22:22.657Z,989.54
2023-03-11T12:23:22.241Z,989.53
2023-03-11T12:24:22.215Z,989.55
2023-03-11T12:25:22.491Z,989.52
2023-03-11T12:26:22.191Z,989.53
2023-03-11T12:27:22.199Z,989.55
2023-03-11T12:28:22.230Z,989.51
2023-03-11T12:29:27.144Z,989.48
2023-03-11T12:30:23.235Z,989.57
2023-03-11T12:31:22.259Z,989.54
2023-03-11T12:32:22.182Z,989.57
2023-03-11T12:33:22.224Z,989.56
2023-03-11T12:34:23.174Z,989.59
2023-03-11T12:35:22.336Z,989.67
2023-03-11T12:36:22.148Z,989.61
2023-03-11T12:37:22.125Z,989.63
2023-03-11T12:38:22.067Z,989.59
2023-03-11T12:39:22.170Z,989.60
2023-03-11T12:40:22.118Z,989.63
2023-03-11T12:41:22.172Z,989.56
2023-03-11T12:42:22.467Z,989.64
2023-03-11T12:43:22.199Z,989.64
2023-03-11T12:44:22.150Z,989.67
2023-03-11T12:45:22.041Z,989.55
2023-03-11T12:46:22.070Z,989.65
2023-03-11T12:47:22.053Z,989.61
2023-03-11T12:48:22.008Z,989.67
2023-03-11T12:49:22.000Z,989.64
2023-03-11T12:50:22.567Z,989.60
2023-03-11T12:51:22.022Z,989.65
2023-03-11T12:52:22.457Z,989.65
2023-03-11T12:53:22.324Z,989.66
2023-03-11T12:54:22.198Z,989.57
2023-03-11T12:55:28.109Z,989.56
2023-03-11T12:56:21.959Z,989.56
2023-03-11T12:57:22.020Z,989.56
2023-03-11T12:58:23.825Z,989.58
2023-03-11T12:59:22.880Z,989.66
2023-03-11T13:00:21.933Z,989.52
2023-03-11T13:01:22.368Z,989.50
2023-03-11T13:02:21.945Z,989.54
2023-03-11T13:03:21.974Z,989.57
2023-03-11T13:04:21.994Z,989.55
2023-03-11T13:05:22.276Z,989.52
2023-03-11T13:06:23.297Z,989.58
2023-03-11T13:07:21.928Z,989.53
2023-03-11T13:08:22.136Z,989.52
2023-03-11T13:09:22.047Z,989.58
2023-03-11T13:10:22.393Z,989.51
2023-03-11T13:11:22.277Z,989.52
2023-03-11T13:12:22.398Z,989.56
2023-03-11T13:13:22.353Z,989.58
2023-03-11T13:14:22.234Z,989.49
2023-03-11T13:15:22.446Z,989.50
2023-03-11T13:16:22.012Z,989.59
2023-03-11T13:17:22.274Z,989.63
2023-03-11T13:18:22.014Z,989.63
2023-03-11T13:19:22.405Z,989.60
2023-03-11T13:20:21.932Z,989.58
2023-03-11T13:21:22.390Z,989.58
2023-03-11T13:22:22.363Z,989.59
2023-03-11T13:23:21.772Z,989.70
2023-03-11T13:24:21.715Z,989.71
2023-03-11T13:25:21.918Z,989.65
2023-03-11T13:26:21.829Z,989.72
2023-03-11T13:27:22.175Z,989.71
2023-03-11T13:28:21.960Z,989.67
2023-03-11T13:29:22.097Z,989.70
2023-03-11T13:30:22.370Z,989.69
2023-03-11T13:31:22.229Z,989.64
2023-03-11T13:32:21.876Z,989.63
2023-03-11T13:33:21.691Z,989.65
2023-03-11T13:34:21.844Z,989.65
2023-03-11T13:35:23.038Z,989.66
2023-03-11T13:36:23.033Z,989.70
2023-03-11T13:37:21.740Z,989.70
2023-03-11T13:38:21.740Z,989.67
2023-03-11T13:39:21.954Z,989.71
2023-03-11T13:40:21.945Z,989.65
2023-03-11T13:41:22.158Z,989.75
2023-03-11T13:42:22.039Z,989.76
2023-03-11T13:43:22.273Z,989.82
2023-03-11T13:44:21.557Z,989.78
2023-03-11T13:45:21.724Z,989.84
2023-03-11T13:46:21.853Z,989.73
2023-03-11T13:47:22.253Z,989.84
2023-03-11T13:48:21.693Z,989.79
2023-03-11T13:49:21.618Z,989.88
2023-03-11T13:50:21.880Z,989.91
2023-03-11T13:51:21.735Z,989.82
2023-03-11T13:52:21.682Z,989.76
2023-03-11T13:53:21.547Z,989.86
2023-03-11T13:54:21.408Z,989.87
2023-03-11T13:55:21.742Z,989.84